Brandon, SD (57005)

8:11 PM CDT on April 30, 2017 (GMT -0500)
East Sioux Falls | | Change Station

Elev 1473 ft 43.55 °N, 96.66 °W | Updated 16 seconds ago

Rain
Rain
37.2 °F
Feels Like 34 °F
N
4.2
Wind Variable Wind from NNE
Gusts 7.4 mph

Today
High -- | Low -- °F
--% Chance of Precip.
Yesterday
High -- | Low -- °F
Precip. -- in
Pressure 29.75 in
Visibility 5.0 miles
Clouds Few 900 ft
Scattered Clouds 1200 ft
Overcast 2100 ft
Windchill 34 °F
Dew Point 36 °F
Humidity 97%
Rainfall 1.04 in
Snow Depth Not available.
6:19 AM 8:27 PM
Waxing Crescent, 27% visible
METAR KFSD 010056Z 02010KT 5SM RA BR FEW009 SCT012 OVC021 03/03 A2972 RMK AO2 SLP075 P0019 T00330033 $
Pressure 29.75 in
Visibility 5.0 miles
Clouds Few 900 ft
Scattered Clouds 1200 ft
Overcast 2100 ft
Windchill 34 °F
Dew Point 36 °F
Humidity 97%
Rainfall 1.04 in
Snow Depth Not available.
6:19 AM 8:27 PM
Waxing Crescent, 27% visible
METAR KFSD 010056Z 02010KT 5SM RA BR FEW009 SCT012 OVC021 03/03 A2972 RMK AO2 SLP075 P0019 T00330033 $

Get Severe Weather Alerts

Thanks for signing up!

Be on the lookout for a verification email in your inbox.

You'll start receiving the daily forecast at 8 AM.

×

10-Day Weather Forecast

Almanac

Astronomy

Apr. 30, 2017 Rise Set
Actual Time
Civil Twilight
Nautical Twilight
Astronomical Twilight
Moon
Length of Visible Light
Length of Day
Tomorrow will be .
, % of the Moon is Illuminated

Today's Extremes

State Highs State Lows

Community

WunderPhotos

WunderBlog® & News

Nearby

Air Quality

  Air Quality AQ Index Pollutant
Not available.

Snow Depth

Station Depth Elevation

Earthquake Activity

City Distance Mag. Time & Date
Minimum magnitude displayed is 2.5.

Coastal Water Temperatures

Place Temperature

Stations

Nearby Weather Stations

Station Location Temp. Windchill Dew Point Humidity Wind Precip. Elev Updated Type
                   

Watches & Warnings

There are currently no watches in effect.